Time;durP1;ratioP1;P1;durP2;ratioP2;P2;SDS_P1;SDS_P2;PMS_P1;PMS_P2;Temp;Humidity;BMP_temperature;BMP_pressure;BME280_temperature;BME280_humidity;BME280_pressure;Samples;Min_cycle;Max_cycle;Signal;HPM_P1;HPM_P2
2022/06/26 00:01:43;;;;;;;32.30;24.00;;;18.40;99.90;;;;;;5007895;28;20049;-67
2022/06/26 00:04:09;;;;;;;32.75;25.95;;;18.40;99.90;;;;;;5011061;28;20095;-67
2022/06/26 00:06:35;;;;;;;32.13;24.35;;;18.40;99.90;;;;;;4994820;28;20061;-69
2022/06/26 00:09:05;;;;;;;35.20;27.15;;;18.40;99.90;;;;;;5008216;28;20100;-68
2022/06/26 00:11:32;;;;;;;35.08;26.83;;;18.40;99.90;;;;;;5009679;28;20112;-67
2022/06/26 00:13:58;;;;;;;32.58;24.63;;;18.30;99.90;;;;;;5024070;28;20038;-67
2022/06/26 00:16:24;;;;;;;34.28;26.50;;;18.40;99.90;;;;;;5008614;28;20382;-67
2022/06/26 00:18:50;;;;;;;38.75;26.45;;;18.30;99.90;;;;;;4992072;28;20049;-68
2022/06/26 00:21:16;;;;;;;37.35;26.52;;;18.30;99.90;;;;;;4989819;28;20136;-67
2022/06/26 00:23:43;;;;;;;38.00;29.05;;;18.30;99.90;;;;;;5014286;28;20044;-68
2022/06/26 00:26:09;;;;;;;39.45;28.52;;;18.30;99.90;;;;;;5015811;28;20045;-67
2022/06/26 00:28:35;;;;;;;32.92;26.15;;;18.30;99.90;;;;;;4991533;28;20046;-68
2022/06/26 00:31:01;;;;;;;40.53;30.55;;;18.40;99.90;;;;;;5001538;28;20060;-68
2022/06/26 00:33:28;;;;;;;40.10;30.55;;;18.40;99.90;;;;;;4994886;28;20049;-69
2022/06/26 00:35:54;;;;;;;39.40;30.30;;;18.50;99.90;;;;;;5019465;28;20064;-69
2022/06/26 00:38:20;;;;;;;37.72;28.52;;;18.50;99.90;;;;;;5010618;28;20042;-67
2022/06/26 00:40:47;;;;;;;38.97;30.27;;;18.50;99.90;;;;;;4993969;28;20045;-67
2022/06/26 00:43:13;;;;;;;42.83;31.05;;;18.50;99.90;;;;;;5010516;28;20397;-67
2022/06/26 00:45:39;;;;;;;37.30;26.83;;;18.50;99.90;;;;;;5007588;28;20095;-69
2022/06/26 00:48:05;;;;;;;43.70;31.38;;;18.50;99.90;;;;;;5023448;28;20049;-68
2022/06/26 00:50:31;;;;;;;40.70;30.30;;;18.50;99.90;;;;;;4995128;28;20046;-69
2022/06/26 00:52:57;;;;;;;37.53;29.33;;;18.50;99.90;;;;;;5014073;28;20064;-67
2022/06/26 00:55:23;;;;;;;40.53;29.88;;;18.50;99.90;;;;;;5012284;28;20132;-67
2022/06/26 00:57:50;;;;;;;42.80;31.20;;;18.40;99.90;;;;;;5015152;28;20117;-67
2022/06/26 01:00:20;;;;;;;35.97;27.52;;;18.40;99.90;;;;;;5012636;28;20064;-67
2022/06/26 01:02:46;;;;;;;39.30;29.73;;;18.30;99.90;;;;;;5010182;28;20045;-68
2022/06/26 01:05:12;;;;;;;36.72;28.08;;;18.30;99.90;;;;;;5010764;28;20474;-68
2022/06/26 01:07:39;;;;;;;43.72;30.75;;;18.30;99.90;;;;;;5009089;28;20062;-67
2022/06/26 01:10:06;;;;;;;40.30;30.70;;;18.30;99.90;;;;;;5008967;28;20060;-68
2022/06/26 01:12:32;;;;;;;42.30;31.17;;;18.30;99.90;;;;;;5020415;28;20490;-67
2022/06/26 01:14:59;;;;;;;42.05;31.60;;;18.20;99.90;;;;;;5003541;28;20054;-67
2022/06/26 01:17:26;;;;;;;38.35;28.23;;;18.20;99.90;;;;;;5012788;28;20038;-69
2022/06/26 01:19:52;;;;;;;38.15;28.67;;;18.20;99.90;;;;;;4994768;28;20042;-67
2022/06/26 01:22:18;;;;;;;38.35;30.13;;;18.10;99.90;;;;;;5006359;28;20054;-67
2022/06/26 01:24:44;;;;;;;40.72;30.10;;;18.00;99.90;;;;;;4982539;28;20084;-67
2022/06/26 01:27:09;;;;;;;39.25;29.60;;;18.00;99.90;;;;;;5008019;28;20034;-68
2022/06/26 01:29:35;;;;;;;40.13;28.67;;;18.00;99.90;;;;;;5005359;28;20092;-67
2022/06/26 01:32:01;;;;;;;42.17;31.95;;;18.00;99.90;;;;;;4984825;28;20048;-67
2022/06/26 01:34:28;;;;;;;41.80;30.38;;;18.00;99.90;;;;;;5008540;28;20145;-68
2022/06/26 01:36:55;;;;;;;42.28;30.48;;;17.90;99.90;;;;;;5009026;28;20041;-71
2022/06/26 01:39:20;;;;;;;46.65;33.72;;;17.80;99.90;;;;;;5008681;28;20033;-67
2022/06/26 01:41:49;;;;;;;46.53;32.50;;;17.80;99.90;;;;;;5009519;28;20133;-67
2022/06/26 01:44:15;;;;;;;46.90;33.15;;;17.70;99.90;;;;;;5008997;28;20050;-67
2022/06/26 01:46:41;;;;;;;45.50;32.83;;;17.70;99.90;;;;;;5008215;28;20124;-67
2022/06/26 01:49:07;;;;;;;45.72;33.70;;;17.70;99.90;;;;;;5008045;28;20595;-69
2022/06/26 01:51:33;;;;;;;45.80;32.80;;;17.70;99.90;;;;;;5028939;28;20038;-72
2022/06/26 01:53:59;;;;;;;38.53;28.00;;;17.60;99.90;;;;;;5013850;28;20375;-67
2022/06/26 01:56:25;;;;;;;36.78;28.95;;;17.60;99.90;;;;;;5011588;28;20124;-67
2022/06/26 01:58:52;;;;;;;26.65;21.77;;;17.70;99.90;;;;;;4983016;28;20045;-68
2022/06/26 02:01:18;;;;;;;543.75;26.20;;;17.60;99.90;;;;;;4980340;28;20092;-67
2022/06/26 02:03:44;;;;;;;34.05;27.95;;;17.50;99.90;;;;;;5009441;28;20038;-68
2022/06/26 02:06:10;;;;;;;42.53;30.73;;;17.50;99.90;;;;;;4968768;28;20050;-70
2022/06/26 02:08:37;;;;;;;44.58;32.67;;;17.60;99.90;;;;;;4986011;28;20543;-67
2022/06/26 02:13:49;;;;;;;40.53;30.10;;;17.80;99.90;;;;;;5011840;28;20077;-70
2022/06/26 02:16:18;;;;;;;41.95;30.23;;;17.80;99.90;;;;;;5010465;28;20042;-71
2022/06/26 02:18:50;;;;;;;39.75;29.67;;;17.90;99.90;;;;;;5008864;28;20339;-70
2022/06/26 02:21:18;;;;;;;42.83;29.80;;;17.90;99.90;;;;;;5011937;28;20478;-67
2022/06/26 02:23:46;;;;;;;39.83;29.50;;;17.90;99.90;;;;;;4989807;28;20111;-67
2022/06/26 02:26:12;;;;;;;39.08;29.05;;;17.90;99.90;;;;;;5013689;28;20044;-68
2022/06/26 02:28:39;;;;;;;38.97;30.42;;;17.90;99.90;;;;;;5016199;28;20045;-66
2022/06/26 02:31:05;;;;;;;36.50;29.02;;;18.00;99.90;;;;;;5017053;28;20386;-68
2022/06/26 02:33:35;;;;;;;38.50;28.25;;;18.00;99.90;;;;;;4995150;28;20053;-71
2022/06/26 02:36:02;;;;;;;36.60;28.42;;;18.10;99.90;;;;;;4994513;28;20381;-67
2022/06/26 02:38:28;;;;;;;35.42;29.77;;;18.00;99.90;;;;;;5011442;28;20474;-68
2022/06/26 02:40:54;;;;;;;37.00;28.73;;;18.00;99.90;;;;;;5010284;28;20050;-67
2022/06/26 02:43:23;;;;;;;32.30;26.55;;;18.00;99.90;;;;;;5009901;28;20125;-70
2022/06/26 02:45:50;;;;;;;32.53;24.95;;;18.00;99.90;;;;;;5014049;28;20064;-67
2022/06/26 02:48:16;;;;;;;29.10;24.30;;;18.10;99.90;;;;;;4978279;28;20053;-68
2022/06/26 02:50:42;;;;;;;28.85;23.98;;;18.10;99.90;;;;;;5009709;28;20049;-68
2022/06/26 02:53:09;;;;;;;33.17;24.15;;;18.10;99.90;;;;;;4978700;28;20385;-67
2022/06/26 02:55:35;;;;;;;29.65;23.45;;;18.10;99.90;;;;;;4995061;28;20056;-67
2022/06/26 02:58:02;;;;;;;29.40;23.52;;;18.10;99.90;;;;;;4993098;28;20529;-67
2022/06/26 03:00:27;;;;;;;29.50;24.15;;;18.10;99.90;;;;;;5007247;28;20049;-71
2022/06/26 03:02:53;;;;;;;27.92;22.63;;;18.20;99.90;;;;;;5009581;28;20061;-67
2022/06/26 03:05:19;;;;;;;29.10;23.77;;;18.20;99.90;;;;;;4984183;28;20049;-67
2022/06/26 03:07:46;;;;;;;31.25;22.70;;;18.20;99.90;;;;;;4993400;28;20049;-68
2022/06/26 03:10:12;;;;;;;25.55;20.90;;;18.20;99.90;;;;;;4992556;28;20119;-68
2022/06/26 03:12:46;;;;;;;26.35;21.23;;;18.20;99.90;;;;;;4993221;28;20041;-68
2022/06/26 03:15:12;;;;;;;26.50;20.55;;;18.30;99.90;;;;;;4976796;28;20064;-68
2022/06/26 03:17:39;;;;;;;22.20;19.40;;;18.30;99.90;;;;;;5008178;28;20052;-68
2022/06/26 03:20:10;;;;;;;21.45;18.58;;;18.40;99.90;;;;;;5010161;28;20083;-68
2022/06/26 03:22:36;;;;;;;23.23;17.25;;;18.40;99.90;;;;;;5008840;28;20117;-67
2022/06/26 03:25:04;;;;;;;24.85;18.20;;;18.40;99.90;;;;;;5009768;28;20490;-68
2022/06/26 03:27:30;;;;;;;21.77;16.08;;;18.30;99.90;;;;;;5010822;28;20091;-68
2022/06/26 03:29:56;;;;;;;17.25;13.73;;;18.30;99.90;;;;;;5009959;28;20450;-67
2022/06/26 03:32:23;;;;;;;19.30;14.45;;;18.30;99.90;;;;;;5009542;28;20042;-67
2022/06/26 03:34:49;;;;;;;19.42;13.65;;;18.30;99.90;;;;;;5010423;28;20386;-67
2022/06/26 03:37:15;;;;;;;17.70;13.65;;;18.30;99.90;;;;;;4985246;28;20072;-68
2022/06/26 03:39:41;;;;;;;13.63;11.70;;;18.30;99.90;;;;;;5008899;28;20034;-68
2022/06/26 03:42:07;;;;;;;13.50;10.85;;;18.30;99.90;;;;;;5010327;28;20482;-67
2022/06/26 03:44:33;;;;;;;16.23;11.13;;;18.20;99.90;;;;;;5008589;28;20084;-71
2022/06/26 03:47:00;;;;;;;13.65;10.73;;;18.30;99.90;;;;;;5007585;28;20120;-73
2022/06/26 03:49:26;;;;;;;14.48;9.68;;;18.30;99.90;;;;;;5008614;28;20470;-70
2022/06/26 03:51:52;;;;;;;12.88;10.50;;;18.30;99.90;;;;;;5009617;28;20049;-68
2022/06/26 03:54:19;;;;;;;12.93;10.18;;;18.20;99.90;;;;;;5010397;28;20037;-67
2022/06/26 03:56:46;;;;;;;12.10;9.75;;;18.30;99.90;;;;;;5009857;28;20069;-68
2022/06/26 03:59:12;;;;;;;11.68;8.80;;;18.20;99.90;;;;;;4983909;28;20102;-67
2022/06/26 04:01:39;;;;;;;9.88;7.55;;;18.20;99.90;;;;;;5008613;28;20132;-69
2022/06/26 04:04:05;;;;;;;10.77;6.90;;;18.10;99.90;;;;;;4993734;28;20053;-70
2022/06/26 04:06:31;;;;;;;9.38;6.10;;;18.20;99.90;;;;;;5005276;28;20384;-68
2022/06/26 04:08:58;;;;;;;7.18;5.90;;;18.20;99.90;;;;;;5008814;28;20045;-67
2022/06/26 04:11:24;;;;;;;7.88;5.60;;;18.10;99.90;;;;;;4983004;28;20172;-67
2022/06/26 04:13:50;;;;;;;9.23;5.90;;;18.20;99.90;;;;;;5009416;28;20449;-68
2022/06/26 04:16:20;;;;;;;5.80;4.70;;;18.20;99.90;;;;;;4983143;28;20136;-67
2022/06/26 04:18:46;;;;;;;6.18;5.47;;;18.20;99.90;;;;;;5013314;28;20050;-69
2022/06/26 04:21:12;;;;;;;4.78;3.95;;;18.20;99.90;;;;;;5013071;28;20095;-70
2022/06/26 04:23:38;;;;;;;4.95;3.97;;;18.20;99.90;;;;;;5009078;28;20060;-68
2022/06/26 04:26:05;;;;;;;7.32;3.85;;;18.20;99.90;;;;;;4993364;28;20124;-70
2022/06/26 04:28:31;;;;;;;4.68;3.53;;;18.20;99.90;;;;;;4966622;28;20053;-71
2022/06/26 04:30:57;;;;;;;4.50;3.40;;;18.20;99.90;;;;;;4993073;28;20091;-67
2022/06/26 04:33:23;;;;;;;3.72;3.22;;;18.30;99.90;;;;;;5009347;28;20053;-67
2022/06/26 04:35:49;;;;;;;4.38;3.08;;;18.30;99.90;;;;;;5009731;28;20041;-67
2022/06/26 04:38:15;;;;;;;6.60;3.17;;;18.30;99.90;;;;;;4982019;28;20528;-67
2022/06/26 04:40:41;;;;;;;4.75;3.70;;;18.40;99.90;;;;;;5008746;28;20041;-67
2022/06/26 04:43:08;;;;;;;3.58;3.28;;;18.40;99.90;;;;;;4992124;28;20099;-68
2022/06/26 04:45:34;;;;;;;4.78;3.30;;;18.40;99.90;;;;;;4991947;28;20068;-70
2022/06/26 04:48:00;;;;;;;4.03;3.33;;;18.40;99.90;;;;;;4992371;28;20478;-69
2022/06/26 04:50:26;;;;;;;6.88;3.67;;;18.30;99.90;;;;;;4964917;28;20041;-70
2022/06/26 04:52:52;;;;;;;4.38;3.97;;;18.30;99.90;;;;;;5012036;28;20055;-67
2022/06/26 04:55:18;;;;;;;5.13;3.95;;;18.20;99.90;;;;;;4981377;28;20049;-67
2022/06/26 04:57:44;;;;;;;7.93;4.00;;;18.20;99.90;;;;;;5013358;28;20045;-68
2022/06/26 05:00:13;;;;;;;4.90;3.83;;;18.10;99.90;;;;;;4979904;28;20100;-67
2022/06/26 05:02:39;;;;;;;4.10;3.67;;;18.10;99.90;;;;;;5013407;28;20464;-68
2022/06/26 05:05:06;;;;;;;4.28;3.80;;;18.10;99.90;;;;;;4993966;28;20058;-68
2022/06/26 05:07:32;;;;;;;4.53;3.97;;;18.10;99.90;;;;;;4994222;28;20046;-67
2022/06/26 05:09:58;;;;;;;4.20;3.80;;;18.10;99.90;;;;;;4993599;28;20046;-67
2022/06/26 05:12:24;;;;;;;5.47;4.05;;;18.10;99.90;;;;;;5010074;28;20037;-67
2022/06/26 05:14:50;;;;;;;7.75;4.03;;;18.00;99.90;;;;;;4991738;28;20045;-67
2022/06/26 05:17:16;;;;;;;6.55;4.38;;;18.00;99.90;;;;;;5011215;28;20054;-67
2022/06/26 05:19:42;;;;;;;7.15;4.35;;;18.00;99.90;;;;;;4993141;28;20080;-67
2022/06/26 05:22:08;;;;;;;5.43;4.20;;;18.00;99.90;;;;;;5010211;28;20131;-67
2022/06/26 05:24:35;;;;;;;5.72;4.60;;;18.00;99.90;;;;;;5010431;28;20390;-68
2022/06/26 05:27:00;;;;;;;5.13;4.18;;;18.00;99.90;;;;;;4993029;28;20034;-69
2022/06/26 05:29:27;;;;;;;5.38;4.00;;;18.00;99.90;;;;;;4976644;28;20050;-67
2022/06/26 05:31:53;;;;;;;4.45;3.88;;;18.00;99.90;;;;;;5008525;28;20034;-68
2022/06/26 05:34:19;;;;;;;7.53;3.80;;;18.00;99.90;;;;;;5010516;28;20046;-68
2022/06/26 05:36:46;;;;;;;5.07;3.78;;;18.10;99.90;;;;;;4997680;28;20045;-67
2022/06/26 05:39:12;;;;;;;7.20;3.60;;;18.10;99.90;;;;;;5013101;28;20038;-69
2022/06/26 05:41:38;;;;;;;5.90;3.78;;;18.10;99.90;;;;;;4997470;28;20237;-68
2022/06/26 05:44:04;;;;;;;3.90;3.53;;;18.20;99.90;;;;;;5012216;28;20406;-72
2022/06/26 05:46:30;;;;;;;4.75;3.80;;;18.20;99.90;;;;;;4986027;28;20053;-67
2022/06/26 05:48:56;;;;;;;6.47;3.60;;;18.20;99.90;;;;;;4996838;28;20431;-67
2022/06/26 05:51:22;;;;;;;5.00;4.18;;;18.20;99.90;;;;;;4997115;28;20395;-67
2022/06/26 05:53:48;;;;;;;5.95;4.30;;;18.30;99.90;;;;;;5013353;28;20063;-68
2022/06/26 05:56:14;;;;;;;6.82;4.53;;;18.40;99.90;;;;;;4997369;28;20042;-69
2022/06/26 05:58:39;;;;;;;7.80;4.85;;;18.40;99.90;;;;;;5012001;28;20049;-67
2022/06/26 06:01:05;;;;;;;8.98;5.93;;;18.50;99.90;;;;;;5012912;28;20168;-68
2022/06/26 06:03:35;;;;;;;8.57;6.03;;;18.50;99.90;;;;;;4997166;28;20080;-67
2022/06/26 06:06:01;;;;;;;6.65;5.57;;;18.50;99.90;;;;;;5012924;28;20049;-67
2022/06/26 06:08:27;;;;;;;7.45;5.45;;;18.60;99.90;;;;;;5012148;28;20046;-68
2022/06/26 06:10:53;;;;;;;8.25;5.75;;;18.60;99.90;;;;;;4995578;28;20064;-67
2022/06/26 06:13:19;;;;;;;7.03;5.43;;;18.60;99.90;;;;;;4991553;28;20487;-67
2022/06/26 06:15:44;;;;;;;9.70;6.35;;;18.70;99.90;;;;;;5008868;28;20064;-67
2022/06/26 06:18:12;;;;;;;10.90;5.97;;;18.70;99.90;;;;;;5013092;28;20053;-67
2022/06/26 06:20:38;;;;;;;9.75;6.45;;;18.70;99.90;;;;;;4994906;28;20557;-68
2022/06/26 06:23:06;;;;;;;8.52;6.22;;;18.90;99.90;;;;;;4996935;28;20049;-67
2022/06/26 06:25:33;;;;;;;10.60;7.47;;;19.00;99.90;;;;;;5013310;28;20042;-66
2022/06/26 06:27:59;;;;;;;9.93;7.53;;;19.00;99.90;;;;;;4980933;28;20080;-65
2022/06/26 06:30:25;;;;;;;9.98;8.15;;;19.20;99.90;;;;;;5010519;28;20389;-71
2022/06/26 06:32:53;;;;;;;10.00;7.63;;;19.20;99.90;;;;;;4996637;28;20390;-67
2022/06/26 06:35:19;;;;;;;10.77;8.30;;;19.20;99.90;;;;;;5012407;28;20397;-68
2022/06/26 06:37:45;;;;;;;10.93;8.15;;;19.20;99.90;;;;;;4979937;28;20048;-67
2022/06/26 06:40:14;;;;;;;10.30;9.20;;;19.20;99.90;;;;;;4996110;28;20041;-66
2022/06/26 06:42:41;;;;;;;10.30;9.20;;;19.20;99.90;;;;;;5007051;28;20042;-69
2022/06/26 06:45:08;;;;;;;11.60;8.60;;;19.20;99.90;;;;;;5010423;28;20482;-69
2022/06/26 06:47:35;;;;;;;10.82;9.20;;;19.20;99.90;;;;;;4996751;28;20042;-70
2022/06/26 06:50:05;;;;;;;11.50;9.50;;;19.20;99.90;;;;;;5012231;28;20132;-69
2022/06/26 06:52:32;;;;;;;11.27;10.02;;;19.30;99.90;;;;;;5008167;28;20041;-68
2022/06/26 06:54:58;;;;;;;13.07;10.55;;;19.30;99.90;;;;;;5012730;28;20038;-71
2022/06/26 06:57:24;;;;;;;13.32;11.32;;;19.50;99.90;;;;;;4999574;28;20046;-70
2022/06/26 06:59:50;;;;;;;12.40;10.85;;;19.80;99.90;;;;;;5014624;28;20533;-69
2022/06/26 07:02:16;;;;;;;12.75;10.43;;;20.10;99.90;;;;;;5025138;28;20114;-71
2022/06/26 07:04:43;;;;;;;11.70;10.50;;;20.20;99.90;;;;;;5008858;28;20058;-69
2022/06/26 07:07:09;;;;;;;12.80;11.50;;;20.10;99.90;;;;;;5007322;28;20080;-70
2022/06/26 07:09:35;;;;;;;12.85;11.55;;;20.00;99.90;;;;;;4988953;28;20532;-70
2022/06/26 07:12:01;;;;;;;14.63;11.77;;;20.00;99.90;;;;;;5005944;28;20030;-74
2022/06/26 07:14:28;;;;;;;13.68;11.88;;;20.00;99.90;;;;;;5007299;28;20073;-70
2022/06/26 07:16:55;;;;;;;13.05;11.57;;;20.00;99.90;;;;;;4981717;28;20046;-69
2022/06/26 07:19:21;;;;;;;18.65;12.50;;;19.90;99.90;;;;;;5006489;28;20053;-70
2022/06/26 07:21:47;;;;;;;16.25;13.40;;;20.00;99.90;;;;;;5008612;28;20054;-70
2022/06/26 07:24:14;;;;;;;15.90;13.48;;;20.00;99.90;;;;;;5007067;28;20042;-70
2022/06/26 07:26:41;;;;;;;17.02;14.55;;;20.30;99.90;;;;;;4994904;28;20049;-68
2022/06/26 07:29:08;;;;;;;17.58;14.32;;;20.20;99.90;;;;;;5011682;28;20041;-70
2022/06/26 07:31:35;;;;;;;18.52;13.52;;;20.10;99.90;;;;;;5007940;28;20331;-73
2022/06/26 07:34:13;;;;;;;16.98;13.98;;;20.10;99.90;;;;;;5009677;28;20056;-69
2022/06/26 07:36:41;;;;;;;17.55;14.45;;;19.90;99.90;;;;;;5011638;28;20125;-69
2022/06/26 07:39:09;;;;;;;19.33;14.05;;;20.00;99.90;;;;;;4986891;28;20085;-71
2022/06/26 07:41:35;;;;;;;16.83;14.75;;;20.00;99.90;;;;;;5009262;28;20826;-73
2022/06/26 07:44:01;;;;;;;20.73;17.05;;;20.20;99.90;;;;;;5006384;28;20084;-73
2022/06/26 07:46:27;;;;;;;19.70;14.90;;;20.30;99.90;;;;;;4990330;28;20380;-73
2022/06/26 07:48:54;;;;;;;22.15;17.08;;;20.40;99.90;;;;;;5005171;28;20104;-72
2022/06/26 07:51:20;;;;;;;19.70;16.42;;;20.40;99.90;;;;;;4981549;28;20041;-76
2022/06/26 07:53:46;;;;;;;19.35;15.80;;;20.40;99.90;;;;;;5007094;28;20069;-71
2022/06/26 07:56:13;;;;;;;21.30;16.73;;;20.60;99.90;;;;;;5004683;28;20515;-69
2022/06/26 07:58:39;;;;;;;20.98;16.67;;;20.40;99.90;;;;;;4986658;28;20085;-73
2022/06/26 08:01:04;;;;;;;19.58;16.58;;;20.40;99.90;;;;;;4985166;28;20287;-69
2022/06/26 08:03:30;;;;;;;24.02;17.58;;;20.40;99.90;;;;;;5005730;28;20050;-69
2022/06/26 08:05:56;;;;;;;21.10;18.00;;;20.20;99.90;;;;;;5005908;28;20084;-70
2022/06/26 08:08:22;;;;;;;20.23;16.38;;;20.10;99.90;;;;;;5008167;28;20073;-70
2022/06/26 08:10:49;;;;;;;21.67;18.48;;;20.40;99.90;;;;;;4996891;28;20061;-70
2022/06/26 08:13:14;;;;;;;23.55;18.20;;;20.70;99.90;;;;;;5012535;28;20038;-69
2022/06/26 08:15:40;;;;;;;22.10;18.95;;;20.70;99.90;;;;;;4997637;28;20060;-70
2022/06/26 08:18:07;;;;;;;22.70;18.17;;;20.80;99.90;;;;;;5012184;28;20475;-70
2022/06/26 08:20:33;;;;;;;21.05;18.75;;;21.20;99.90;;;;;;4974760;28;20037;-70
2022/06/26 08:23:00;;;;;;;20.23;16.88;;;21.50;99.90;;;;;;4991026;28;20040;-70
2022/06/26 08:25:26;;;;;;;18.40;16.48;;;21.80;99.90;;;;;;5010845;28;20038;-71
2022/06/26 08:27:52;;;;;;;21.02;18.02;;;21.90;99.90;;;;;;5011668;28;20112;-69
2022/06/26 08:30:18;;;;;;;19.70;17.52;;;21.50;99.90;;;;;;5003244;28;20482;-73
2022/06/26 08:32:44;;;;;;;20.20;18.02;;;21.30;99.90;;;;;;4988909;28;20037;-70
2022/06/26 08:35:11;;;;;;;18.40;16.08;;;21.40;99.90;;;;;;5005700;28;20050;-72
2022/06/26 08:37:37;;;;;;;19.10;17.10;;;21.70;99.90;;;;;;4977986;28;20046;-68
2022/06/26 08:40:04;;;;;;;17.65;15.70;;;22.10;99.90;;;;;;5004139;28;20037;-70
2022/06/26 08:42:31;;;;;;;17.17;13.57;;;22.00;99.90;;;;;;5005294;28;20648;-70
2022/06/26 08:44:59;;;;;;;14.80;13.27;;;21.70;99.90;;;;;;5005983;28;20038;-70
2022/06/26 08:47:26;;;;;;;16.63;14.20;;;21.30;99.90;;;;;;5004677;28;20084;-68
2022/06/26 08:49:53;;;;;;;18.42;13.40;;;21.10;99.90;;;;;;5004820;28;20057;-69
2022/06/26 08:52:21;;;;;;;15.40;13.80;;;20.90;99.90;;;;;;4982218;28;20491;-66
2022/06/26 08:54:48;;;;;;;15.52;13.80;;;20.60;99.90;;;;;;5010887;28;20041;-66
2022/06/26 08:57:15;;;;;;;15.63;14.10;;;20.50;99.90;;;;;;5010724;28;20053;-67
2022/06/26 08:59:42;;;;;;;12.95;11.75;;;20.60;99.90;;;;;;4993296;28;20053;-67
2022/06/26 09:02:08;;;;;;;16.80;13.07;;;21.10;99.90;;;;;;5008484;28;20509;-68
2022/06/26 09:04:36;;;;;;;16.17;14.57;;;21.30;99.90;;;;;;5008318;28;20050;-71
2022/06/26 09:07:05;;;;;;;13.63;12.23;;;21.60;99.90;;;;;;4994208;28;20486;-67
2022/06/26 09:09:31;;;;;;;13.40;11.35;;;21.70;99.90;;;;;;5006620;28;20041;-70
2022/06/26 09:11:59;;;;;;;12.48;10.63;;;21.80;99.90;;;;;;5011427;28;20099;-67
2022/06/26 09:14:27;;;;;;;8.43;7.65;;;22.10;99.90;;;;;;5014176;28;20046;-68
2022/06/26 09:16:54;;;;;;;6.65;6.05;;;22.40;99.90;;;;;;5014389;28;20049;-66
2022/06/26 09:19:36;;;;;;;7.65;6.93;;;22.40;99.90;;;;;;4997234;28;20398;-66
2022/06/26 09:22:11;;;;;;;11.52;9.15;;;22.60;99.90;;;;;;5014576;28;20038;-67
2022/06/26 09:24:39;;;;;;;12.30;9.30;;;22.80;99.90;;;;;;4997899;28;20049;-68
2022/06/26 09:27:14;;;;;;;10.88;9.77;;;22.80;99.90;;;;;;5013940;28;20041;-67
2022/06/26 09:29:41;;;;;;;14.82;9.40;;;22.70;99.90;;;;;;4997540;28;20064;-67
2022/06/26 09:32:13;;;;;;;8.75;7.55;;;22.70;99.90;;;;;;4997776;28;20045;-66
2022/06/26 09:34:44;;;;;;;9.77;8.88;;;22.60;99.90;;;;;;5014053;28;20053;-67
2022/06/26 09:37:10;;;;;;;8.27;6.03;;;22.70;99.90;;;;;;4997881;28;20042;-68
2022/06/26 09:39:36;;;;;;;9.07;8.07;;;22.70;99.90;;;;;;5013371;28;20068;-67
2022/06/26 09:42:15;;;;;;;10.05;7.93;;;22.80;99.90;;;;;;5013836;28;20045;-67
2022/06/26 09:44:46;;;;;;;10.93;8.98;;;22.80;99.90;;;;;;4997286;28;20444;-66
2022/06/26 09:47:27;;;;;;;10.15;9.20;;;22.60;99.90;;;;;;4997374;28;20526;-66
2022/06/26 09:49:57;;;;;;;;;;;22.50;99.90;;;;;;4997365;28;20119;-66
2022/06/26 09:52:25;;;;;;;6.68;5.93;;;22.60;99.90;;;;;;4997317;28;19917;-67
2022/06/26 09:54:53;;;;;;;6.50;5.80;;;22.30;99.90;;;;;;5013971;28;20050;-67
2022/06/26 09:57:20;;;;;;;7.40;6.70;;;22.30;99.90;;;;;;4997192;28;20042;-67
2022/06/26 09:59:47;;;;;;;7.35;6.60;;;22.50;99.90;;;;;;5013127;28;20433;-67
2022/06/26 10:07:51;;;;;;;7.07;6.45;;;23.40;99.90;;;;;;5013578;28;20045;-67
2022/06/26 10:10:21;;;;;;;5.30;4.50;;;23.70;99.90;;;;;;5012584;28;20403;-67
2022/06/26 10:12:52;;;;;;;5.63;5.13;;;23.80;99.90;;;;;;5004391;28;20116;-68
2022/06/26 10:15:21;;;;;;;6.03;4.63;;;23.90;99.90;;;;;;4993825;28;20057;-68
2022/06/26 10:18:15;;;;;;;6.22;5.63;;;24.10;99.90;;;;;;5012934;28;20046;-67
2022/06/26 10:20:42;;;;;;;6.00;5.00;;;23.90;99.90;;;;;;5012722;28;20046;-66
2022/06/26 10:23:08;;;;;;;4.75;4.30;;;23.50;99.90;;;;;;5012935;28;20078;-67
2022/06/26 10:25:35;;;;;;;4.88;4.20;;;23.40;99.90;;;;;;5013000;28;20054;-67
2022/06/26 10:28:01;;;;;;;7.55;6.70;;;23.20;99.90;;;;;;4996380;28;20045;-67
2022/06/26 10:30:31;;;;;;;8.75;6.97;;;23.30;99.90;;;;;;4996909;28;20112;-68
2022/06/26 10:33:10;;;;;;;9.30;6.25;;;23.50;99.90;;;;;;4996872;28;20046;-67
2022/06/26 10:35:42;;;;;;;7.07;6.40;;;23.70;99.90;;;;;;5012809;28;20060;-68
2022/06/26 10:38:18;;;;;;;8.40;7.13;;;23.70;99.90;;;;;;5012298;28;20054;-67
2022/06/26 10:43:46;;;;;;;7.13;6.43;;;23.30;99.90;;;;;;5012932;28;20089;-66
2022/06/26 10:46:14;;;;;;;7.82;5.80;;;23.30;99.90;;;;;;5012555;28;20125;-67
2022/06/26 10:48:50;;;;;;;5.50;4.85;;;23.60;99.90;;;;;;4995936;28;20042;-67
2022/06/26 10:51:28;;;;;;;5.60;5.10;;;23.70;99.90;;;;;;5012594;28;20037;-67
2022/06/26 10:53:54;;;;;;;5.97;5.45;;;23.80;99.90;;;;;;5012397;28;20489;-67
2022/06/26 10:56:21;;;;;;;4.57;4.18;;;23.90;99.90;;;;;;4996347;28;20076;-66
2022/06/26 10:58:48;;;;;;;4.45;4.05;;;24.00;99.90;;;;;;5012012;28;20038;-69
2022/06/26 11:01:17;;;;;;;4.85;4.40;;;23.80;99.90;;;;;;5012301;28;20076;-67
2022/06/26 11:03:44;;;;;;;4.18;3.80;;;23.90;99.90;;;;;;5012286;28;20050;-67
2022/06/26 11:06:15;;;;;;;3.67;3.35;;;23.90;99.90;;;;;;5011791;28;20180;-67
2022/06/26 11:08:47;;;;;;;3.53;3.22;;;23.80;99.90;;;;;;4995268;28;20441;-67
2022/06/26 11:11:28;;;;;;;3.58;3.28;;;23.90;99.90;;;;;;5012242;28;20632;-67
2022/06/26 11:14:05;;;;;;;5.20;3.60;;;24.30;99.90;;;;;;5025220;28;20065;-67
2022/06/26 11:16:38;;;;;;;3.97;3.55;;;24.70;99.90;;;;;;5012462;28;20038;-67
2022/06/26 11:19:06;;;;;;;6.35;4.38;;;24.70;99.90;;;;;;5011800;28;20041;-70
2022/06/26 11:21:33;;;;;;;3.95;3.50;;;24.60;99.90;;;;;;5011897;28;20049;-67
2022/06/26 11:24:00;;;;;;;4.45;3.45;;;24.60;99.90;;;;;;5012135;28;20057;-68
2022/06/26 11:26:26;;;;;;;4.00;3.60;;;24.40;99.90;;;;;;5011664;28;20514;-68
2022/06/26 11:29:00;;;;;;;4.05;3.65;;;24.40;99.90;;;;;;5011782;28;20049;-67
2022/06/26 11:31:30;;;;;;;4.30;3.10;;;24.50;99.90;;;;;;5011700;28;20537;-66
2022/06/26 11:34:13;;;;;;;3.47;3.10;;;24.60;99.90;;;;;;5011198;28;20096;-67
2022/06/26 11:36:52;;;;;;;3.85;3.17;;;24.70;99.90;;;;;;4995368;28;20046;-67
2022/06/26 11:39:18;;;;;;;3.13;2.90;;;24.70;99.90;;;;;;5011261;28;20077;-67
2022/06/26 11:41:45;;;;;;;3.97;3.22;;;24.70;99.90;;;;;;4995562;28;20125;-67
2022/06/26 11:44:11;;;;;;;4.05;3.17;;;24.70;99.90;;;;;;4995426;28;20045;-70
2022/06/26 11:46:37;;;;;;;5.28;3.03;;;24.90;99.90;;;;;;5011596;28;20042;-68
2022/06/26 11:49:03;;;;;;;3.60;3.30;;;25.10;99.90;;;;;;5011277;28;20088;-67
2022/06/26 11:51:32;;;;;;;3.38;3.08;;;25.10;99.90;;;;;;5011342;28;20129;-67
2022/06/26 11:53:58;;;;;;;4.78;3.15;;;25.10;99.90;;;;;;4979191;28;20050;-69
2022/06/26 11:56:28;;;;;;;4.70;2.92;;;25.30;99.90;;;;;;4995022;28;20406;-67
2022/06/26 11:58:56;;;;;;;3.58;3.00;;;25.30;99.90;;;;;;5011100;28;20042;-67
2022/06/26 12:01:31;;;;;;;3.85;3.03;;;25.20;99.90;;;;;;5011352;28;20049;-67
2022/06/26 12:03:57;;;;;;;4.85;2.97;;;25.20;99.90;;;;;;5011209;28;20049;-68
2022/06/26 12:06:30;;;;;;;3.95;3.35;;;24.90;99.90;;;;;;4994655;28;20064;-67
2022/06/26 12:08:57;;;;;;;3.45;2.90;;;24.60;98.40;;;;;;4994295;28;20045;-67
2022/06/26 12:11:24;;;;;;;3.40;3.10;;;24.60;99.80;;;;;;4995050;28;20260;-67
2022/06/26 12:13:51;;;;;;;3.75;2.95;;;24.80;99.90;;;;;;5007633;28;20050;-69
2022/06/26 12:16:20;;;;;;;3.20;2.80;;;25.00;99.90;;;;;;5011118;28;20124;-67
2022/06/26 12:18:49;;;;;;;4.03;3.10;;;25.30;99.90;;;;;;4994340;28;20164;-66
2022/06/26 12:21:20;;;;;;;3.80;3.28;;;25.10;99.00;;;;;;5010789;28;20038;-66
2022/06/26 12:23:48;;;;;;;4.13;3.70;;;25.10;98.50;;;;;;4994837;28;20050;-66
2022/06/26 12:26:18;;;;;;;3.13;2.80;;;25.30;99.00;;;;;;4994652;28;20045;-67
2022/06/26 12:28:46;;;;;;;3.42;3.10;;;25.20;99.50;;;;;;4994293;28;20053;-69
2022/06/26 12:31:14;;;;;;;3.83;3.30;;;25.20;99.30;;;;;;5010806;28;20054;-69
2022/06/26 12:33:40;;;;;;;4.43;3.50;;;25.20;99.10;;;;;;5011073;28;20034;-67
2022/06/26 12:36:06;;;;;;;3.17;2.75;;;24.80;96.90;;;;;;5010928;28;20053;-67
2022/06/26 12:38:39;;;;;;;3.38;2.90;;;24.80;98.00;;;;;;5010370;28;20037;-68
2022/06/26 12:41:06;;;;;;;3.75;2.80;;;24.90;99.30;;;;;;5010784;28;20038;-66
2022/06/26 12:43:32;;;;;;;7.55;2.70;;;24.90;99.00;;;;;;5010424;28;20045;-67
2022/06/26 12:45:58;;;;;;;3.80;3.10;;;24.90;99.10;;;;;;4994513;28;20042;-68
2022/06/26 12:48:24;;;;;;;3.58;2.95;;;24.80;98.80;;;;;;4994113;28;20084;-67